Time;durP1;ratioP1;P1;durP2;ratioP2;P2;SDS_P1;SDS_P2;PMS_P1;PMS_P2;Temp;Humidity;BMP_temperature;BMP_pressure;BME280_temperature;BME280_humidity;BME280_pressure;Samples;Min_cycle;Max_cycle;Signal;HPM_P1;HPM_P2
2023/09/03 00:00:22;;;;;;;;;;;;;;;-140.72;100.00;52772.34;5074829;28;19969;-69
2023/09/03 00:02:48;;;;;;;;;;;;;;;-140.72;100.00;52735.81;5073019;28;20018;-69
2023/09/03 00:05:13;;;;;;;;;;;;;;;-140.72;100.00;52735.81;5067073;28;19974;-69
2023/09/03 00:07:38;;;;;;;;;;;;;;;-140.72;100.00;52812.94;5074885;28;19924;-69
2023/09/03 00:10:03;;;;;;;;;;;;;;;-140.72;100.00;52774.38;5067473;28;19964;-69
2023/09/03 00:12:29;;;;;;;;;;;;;;;-140.72;100.00;52764.25;5074691;28;19927;-69
2023/09/03 00:14:54;;;;;;;;;;;;;;;-140.72;100.00;52776.41;5073371;28;20046;-70
2023/09/03 00:17:19;;;;;;;;;;;;;;;-140.72;100.00;52760.19;5070506;28;19960;-69
2023/09/03 00:19:44;;;;;;;;;;;;;;;-140.72;100.00;52798.72;5073523;28;19924;-69
2023/09/03 00:22:10;;;;;;;;;;;;;;;-140.72;100.00;52788.59;5072079;28;19925;-69
2023/09/03 00:24:35;;;;;;;;;;;;;;;-140.72;100.00;52776.41;5073160;28;19948;-69
2023/09/03 00:27:03;;;;;;;;;;;;;;;-140.72;100.00;52772.34;5071171;28;19987;-69
2023/09/03 00:29:29;;;;;;;;;;;;;;;-140.72;100.00;52756.13;5080711;28;20323;-69
2023/09/03 00:31:55;;;;;;;;;;;;;;;-140.72;100.00;52776.41;5068460;28;20019;-69
2023/09/03 00:34:27;;;;;;;;;;;;;;;-140.72;100.00;52800.75;5072244;28;19921;-69
2023/09/03 00:36:53;;;;;;;;;;;;;;;-140.72;100.00;52778.44;5073231;28;19932;-69
2023/09/03 00:39:18;;;;;;;;;;;;;;;-140.72;100.00;52780.47;5068040;28;19928;-68
2023/09/03 00:41:44;;;;;;;;;;;;;;;-140.72;100.00;52778.44;5069734;28;19943;-68
2023/09/03 00:44:10;;;;;;;;;;;;;;;-140.72;100.00;52784.53;5071857;28;19944;-69
2023/09/03 00:46:35;;;;;;;;;;;;;;;-140.72;100.00;52741.91;5070137;28;19921;-69
2023/09/03 00:49:00;;;;;;;;;;;;;;;-140.72;100.00;52800.75;5066020;28;19928;-68
2023/09/03 00:51:26;;;;;;;;;;;;;;;-140.72;100.00;52808.88;5068429;28;19920;-69
2023/09/03 00:53:53;;;;;;;;;;;;;;;-140.72;100.00;52802.78;5072106;28;20033;-69
2023/09/03 00:56:19;;;;;;;;;;;;;;;-140.72;100.00;52821.06;5074179;28;21367;-69
2023/09/03 00:58:45;;;;;;;;;;;;;;;-140.72;100.00;52762.22;5075330;28;19932;-69
2023/09/03 01:01:11;;;;;;;;;;;;;;;-140.72;100.00;52784.53;5076198;28;19924;-69
2023/09/03 01:03:36;;;;;;;;;;;;;;;-140.72;100.00;52810.91;5068215;28;20015;-69
2023/09/03 01:06:01;;;;;;;;;;;;;;;-140.72;100.00;52776.41;5070553;28;19958;-69
2023/09/03 01:08:27;;;;;;;;;;;;;;;-140.72;100.00;52770.31;5072446;28;19924;-69
2023/09/03 01:11:02;;;;;;;;;;;;;;;-140.72;100.00;52772.34;5074255;28;19920;-69
2023/09/03 01:13:33;;;;;;;;;;;;;;;-140.72;100.00;52841.34;5073674;28;19921;-68
2023/09/03 01:16:01;;;;;;;;;;;;;;;-140.72;100.00;52786.56;5074970;28;19924;-68
2023/09/03 01:18:29;;;;;;;;;;;;;;;-140.72;100.00;52776.41;5076363;28;19924;-68
2023/09/03 01:20:54;;;;;;;;;;;;;;;-140.72;100.00;52810.91;5069052;28;19971;-68
2023/09/03 01:23:42;;;;;;;;;;;;;;;-140.72;100.00;52743.94;5065641;28;20013;-68
2023/09/03 01:26:16;;;;;;;;;;;;;;;-140.72;100.00;52792.66;5066890;28;19935;-68
2023/09/03 01:28:43;;;;;;;;;;;;;;;-140.72;100.00;52772.34;5072062;28;19945;-68
2023/09/03 01:31:11;;;;;;;;;;;;;;;-140.72;100.00;52792.66;5067649;28;20027;-69
2023/09/03 01:33:45;;;;;;;;;;;;;;;-140.72;100.00;52802.78;5064899;28;19926;-69
2023/09/03 01:36:11;;;;;;;;;;;;;;;-140.72;100.00;52808.88;5070443;28;19921;-68
2023/09/03 01:38:37;;;;;;;;;;;;;;;-140.72;100.00;52768.28;5075524;28;19920;-68
2023/09/03 01:41:24;;;;;;;;;;;;;;;-140.72;100.00;52796.72;5074323;28;20019;-69
2023/09/03 01:43:49;;;;;;;;;;;;;;;-140.72;100.00;52784.53;5071451;28;19920;-69
2023/09/03 01:46:20;;;;;;;;;;;;;;;-140.72;100.00;52802.78;5071685;28;20291;-68
2023/09/03 01:48:48;;;;;;;;;;;;;;;-140.72;100.00;52782.50;5069534;28;19927;-68
2023/09/03 01:51:23;;;;;;;;;;;;;;;-140.72;100.00;52798.72;5070859;28;19932;-68
2023/09/03 01:53:55;;;;;;;;;;;;;;;-140.72;100.00;52786.56;5071529;28;20030;-68
2023/09/03 01:56:22;;;;;;;;;;;;;;;-140.72;100.00;52814.97;5066058;28;20264;-68
2023/09/03 01:58:49;;;;;;;;;;;;;;;-140.72;100.00;52739.88;5067811;28;19932;-68
2023/09/03 02:01:15;;;;;;;;;;;;;;;-140.72;100.00;52772.34;5062317;28;19921;-68
2023/09/03 02:03:42;;;;;;;;;;;;;;;-140.72;100.00;52796.72;5067407;28;20293;-68
2023/09/03 02:06:07;;;;;;;;;;;;;;;-140.72;100.00;52772.34;5071142;28;19936;-68
2023/09/03 02:08:33;;;;;;;;;;;;;;;-140.72;100.00;52806.84;5066591;28;19950;-68
2023/09/03 02:10:58;;;;;;;;;;;;;;;-140.72;100.00;52829.19;5070225;28;19925;-68
2023/09/03 02:13:23;;;;;;;;;;;;;;;-140.72;100.00;52798.72;5069266;28;19920;-69
2023/09/03 02:16:02;;;;;;;;;;;;;;;-140.72;100.00;52788.59;5064043;28;19974;-69
2023/09/03 02:18:27;;;;;;;;;;;;;;;-140.72;100.00;52780.47;5069073;28;19925;-69
2023/09/03 02:20:54;;;;;;;;;;;;;;;-140.72;100.00;52817.00;5076198;28;20024;-68
2023/09/03 02:23:19;;;;;;;;;;;;;;;-140.72;100.00;52806.84;5068502;28;19964;-68
2023/09/03 02:25:45;;;;;;;;;;;;;;;-140.72;100.00;52837.28;5066863;28;20397;-68
2023/09/03 02:28:10;;;;;;;;;;;;;;;-140.72;100.00;52782.50;5067395;28;20390;-68
2023/09/03 02:30:35;;;;;;;;;;;;;;;-140.72;100.00;52776.41;5074473;28;19920;-68
2023/09/03 02:33:00;;;;;;;;;;;;;;;-140.72;100.00;52808.88;5069839;28;19927;-68
2023/09/03 02:35:26;;;;;;;;;;;;;;;-140.72;100.00;52792.66;5070933;28;20321;-68
2023/09/03 02:37:51;;;;;;;;;;;;;;;-140.72;100.00;52800.75;5069232;28;20917;-69
2023/09/03 02:40:16;;;;;;;;;;;;;;;-140.72;100.00;52780.47;5070572;28;20424;-69
2023/09/03 02:42:41;;;;;;;;;;;;;;;-140.72;100.00;52790.63;5072430;28;19927;-69
2023/09/03 02:45:07;;;;;;;;;;;;;;;-140.72;100.00;52800.75;5066147;28;19932;-69
2023/09/03 02:47:32;;;;;;;;;;;;;;;-140.72;100.00;52812.94;5073604;28;19920;-69
2023/09/03 02:49:57;;;;;;;;;;;;;;;-140.72;100.00;52772.34;5070388;28;19955;-68
2023/09/03 02:52:22;;;;;;;;;;;;;;;-140.72;100.00;52800.75;5069861;28;19956;-69
2023/09/03 02:54:47;;;;;;;;;;;;;;;-140.72;100.00;52780.47;5071239;28;20003;-69
2023/09/03 02:57:13;;;;;;;;;;;;;;;-140.72;100.00;52796.72;5068761;28;19927;-69
2023/09/03 02:59:41;;;;;;;;;;;;;;;-140.72;100.00;52812.94;5063675;28;19971;-69
2023/09/03 03:02:06;;;;;;;;;;;;;;;-140.72;100.00;52768.28;5065891;28;20271;-69
2023/09/03 03:04:32;;;;;;;;;;;;;;;-140.72;100.00;52788.59;5069116;28;19939;-69
2023/09/03 03:06:57;;;;;;;;;;;;;;;-140.72;100.00;52784.53;5069082;28;20541;-69
2023/09/03 03:09:23;;;;;;;;;;;;;;;-140.72;100.00;52768.28;5071639;28;19920;-68
2023/09/03 03:11:48;;;;;;;;;;;;;;;-140.72;100.00;52776.41;5073793;28;19927;-69
2023/09/03 03:14:14;;;;;;;;;;;;;;;-140.72;100.00;52819.03;5070201;28;20379;-69
2023/09/03 03:16:39;;;;;;;;;;;;;;;-140.72;100.00;52758.16;5067481;28;20283;-69
2023/09/03 03:19:04;;;;;;;;;;;;;;;-140.72;100.00;52800.75;5069054;28;19920;-68
2023/09/03 03:21:30;;;;;;;;;;;;;;;-140.72;100.00;52841.34;5067404;28;19932;-69
2023/09/03 03:23:55;;;;;;;;;;;;;;;-140.72;100.00;52782.50;5076003;28;19928;-68
2023/09/03 03:26:20;;;;;;;;;;;;;;;-140.72;100.00;52825.13;5069216;28;20003;-69
2023/09/03 03:28:45;;;;;;;;;;;;;;;-140.72;100.00;52760.19;5064413;28;19921;-69
2023/09/03 03:31:11;;;;;;;;;;;;;;;-140.72;100.00;52800.75;5068396;28;19963;-69
2023/09/03 03:33:39;;;;;;;;;;;;;;;-140.72;100.00;52792.66;5067297;28;19967;-68
2023/09/03 03:36:05;;;;;;;;;;;;;;;-140.72;100.00;52786.56;5069867;28;19928;-69
2023/09/03 03:38:30;;;;;;;;;;;;;;;-140.72;100.00;52804.81;5068953;28;19920;-68
2023/09/03 03:41:08;;;;;;;;;;;;;;;-140.72;100.00;52798.72;5075505;28;19921;-68
2023/09/03 03:43:33;;;;;;;;;;;;;;;-140.72;100.00;52804.81;5070838;28;20398;-69
2023/09/03 03:45:59;;;;;;;;;;;;;;;-140.72;100.00;52774.38;5068187;28;19924;-69
2023/09/03 03:48:24;;;;;;;;;;;;;;;-140.72;100.00;52829.19;5069228;28;19944;-68
2023/09/03 03:50:53;;;;;;;;;;;;;;;-140.72;100.00;52821.06;5063779;28;19975;-68
2023/09/03 03:53:26;;;;;;;;;;;;;;;-140.72;100.00;52784.53;5070519;28;20283;-68
2023/09/03 03:55:56;;;;;;;;;;;;;;;-140.72;100.00;52812.94;5068739;28;19924;-69
2023/09/03 03:58:30;;;;;;;;;;;;;;;-140.72;100.00;52810.91;5078590;28;19959;-69
2023/09/03 04:00:55;;;;;;;;;;;;;;;-140.72;100.00;52788.59;5067314;28;19928;-69
2023/09/03 04:03:24;;;;;;;;;;;;;;;-140.72;100.00;52831.19;5070424;28;20243;-69
2023/09/03 04:05:59;;;;;;;;;;;;;;;-140.72;100.00;52802.78;5070586;28;19969;-69
2023/09/03 04:08:25;;;;;;;;;;;;;;;-140.72;100.00;52758.16;5068317;28;20275;-69
2023/09/03 04:11:00;;;;;;;;;;;;;;;-140.72;100.00;52823.09;5067352;28;20020;-69
2023/09/03 04:13:26;;;;;;;;;;;;;;;-140.72;100.00;52804.81;5083480;28;20000;-69
2023/09/03 04:15:52;;;;;;;;;;;;;;;-140.72;100.00;52772.34;5074851;28;19987;-68
2023/09/03 04:18:28;;;;;;;;;;;;;;;-140.72;100.00;52808.88;5070368;28;19924;-69
2023/09/03 04:20:54;;;;;;;;;;;;;;;-140.72;100.00;52853.53;5070447;28;19927;-69
2023/09/03 04:23:20;;;;;;;;;;;;;;;-140.72;100.00;52762.22;5075033;28;19929;-69
2023/09/03 04:25:45;;;;;;;;;;;;;;;-140.72;100.00;52776.41;5072729;28;19924;-69
2023/09/03 04:28:12;;;;;;;;;;;;;;;-140.72;100.00;52855.56;5074105;28;19928;-69
2023/09/03 04:30:38;;;;;;;;;;;;;;;-140.72;100.00;52837.28;5077521;28;19924;-69
2023/09/03 04:33:04;;;;;;;;;;;;;;;-140.72;100.00;52804.81;5070497;28;19925;-69
2023/09/03 04:35:30;;;;;;;;;;;;;;;-140.72;100.00;52808.88;5070092;28;19928;-69
2023/09/03 04:37:55;;;;;;;;;;;;;;;-140.72;100.00;52810.91;5068581;28;19921;-69
2023/09/03 04:40:20;;;;;;;;;;;;;;;-140.72;100.00;52812.94;5070543;28;20452;-69
2023/09/03 04:42:46;;;;;;;;;;;;;;;-140.72;100.00;52788.59;5069126;28;19947;-69
2023/09/03 04:45:11;;;;;;;;;;;;;;;-140.72;100.00;52794.69;5073094;28;19925;-69
2023/09/03 04:47:36;;;;;;;;;;;;;;;-140.72;100.00;52782.50;5072556;28;20291;-69
2023/09/03 04:50:01;;;;;;;;;;;;;;;-140.72;100.00;52768.28;5072625;28;19967;-70
2023/09/03 04:52:29;;;;;;;;;;;;;;;-140.72;100.00;52800.75;5067758;28;19925;-68
2023/09/03 04:54:54;;;;;;;;;;;;;;;-140.72;100.00;52819.03;5071355;28;19928;-69
2023/09/03 04:57:20;;;;;;;;;;;;;;;-140.72;100.00;52831.19;5074997;28;19989;-69
2023/09/03 04:59:49;;;;;;;;;;;;;;;-140.72;100.00;52804.81;5075433;28;20404;-71
2023/09/03 05:02:50;;;;;;;;;;;;;;;-140.72;100.00;52829.19;5068114;28;19943;-77
2023/09/03 05:05:15;;;;;;;;;;;;;;;-140.72;100.00;52786.56;5077459;28;19920;-73
2023/09/03 05:07:54;;;;;;;;;;;;;;;-140.72;100.00;52821.06;5068673;28;20328;-73
2023/09/03 05:10:19;;;;;;;;;;;;;;;-140.72;100.00;52821.06;5069071;28;19999;-74
2023/09/03 05:12:44;;;;;;;;;;;;;;;-140.72;100.00;52825.13;5071714;28;19971;-72
2023/09/03 05:18:05;;;;;;;;;;;;;;;-140.72;100.00;52835.25;5074167;28;19963;-72
2023/09/03 05:20:30;;;;;;;;;;;;;;;-140.72;100.00;52869.75;5070513;28;19917;-73
2023/09/03 05:22:55;;;;;;;;;;;;;;;-140.72;100.00;52812.94;5055021;28;19925;-73
2023/09/03 05:25:21;;;;;;;;;;;;;;;-140.72;100.00;52812.94;5074457;28;19916;-73
2023/09/03 05:27:46;;;;;;;;;;;;;;;-140.72;100.00;52831.19;5058086;28;20020;-72
2023/09/03 05:30:11;;;;;;;;;;;;;;;-140.72;100.00;52804.81;5072939;28;19951;-72
2023/09/03 05:32:36;;;;;;;;;;;;;;;-140.72;100.00;52817.00;5076772;28;20011;-71
2023/09/03 05:35:03;;;;;;;;;;;;;;;-140.72;100.00;52841.34;5075164;28;19916;-71
2023/09/03 05:37:28;;;;;;;;;;;;;;;-140.72;100.00;52817.00;5065408;28;19978;-72
2023/09/03 05:39:53;;;;;;;;;;;;;;;-140.72;100.00;52800.75;5058350;28;19916;-73
2023/09/03 05:42:18;;;;;;;;;;;;;;;-140.72;100.00;52821.06;5066542;28;19989;-72
2023/09/03 05:44:44;;;;;;;;;;;;;;;-140.72;100.00;52764.25;5074597;28;19917;-72
2023/09/03 05:47:13;;;;;;;;;;;;;;;-140.72;100.00;52780.47;5067418;28;20348;-72
2023/09/03 05:49:38;;;;;;;;;;;;;;;-140.72;100.00;52800.75;5062238;28;19927;-72
2023/09/03 05:52:03;;;;;;;;;;;;;;;-140.72;100.00;52792.66;5073376;28;19921;-72
2023/09/03 05:54:29;;;;;;;;;;;;;;;-140.72;100.00;52792.66;5058975;28;19916;-72
2023/09/03 05:57:07;;;;;;;;;;;;;;;-140.72;100.00;52784.53;5061084;28;20061;-71
2023/09/03 05:59:32;;;;;;;;;;;;;;;-140.72;100.00;52788.59;5069384;28;20047;-71
2023/09/03 06:01:57;;;;;;;;;;;;;;;-140.72;100.00;52741.91;5060135;28;20005;-71
2023/09/03 06:04:23;;;;;;;;;;;;;;;-140.72;100.00;52752.06;5063784;28;19920;-71
2023/09/03 06:06:48;;;;;;;;;;;;;;;-140.72;100.00;52770.31;5060458;28;19917;-71
2023/09/03 06:09:16;;;;;;;;;;;;;;;-140.72;100.00;52764.25;5073852;28;19921;-71
2023/09/03 06:11:41;;;;;;;;;;;;;;;-140.72;100.00;52770.31;5068672;28;19924;-71
2023/09/03 06:14:06;;;;;;;;;;;;;;;-140.72;100.00;52774.38;5074854;28;19924;-72
2023/09/03 06:16:32;;;;;;;;;;;;;;;-140.72;100.00;52739.88;5074561;28;19920;-73
2023/09/03 06:18:57;;;;;;;;;;;;;;;-140.72;100.00;52737.84;5071550;28;19963;-73
2023/09/03 06:21:29;;;;;;;;;;;;;;;-140.72;100.00;52756.13;5073356;28;19970;-72
2023/09/03 06:23:54;;;;;;;;;;;;;;;-140.72;100.00;52745.97;5071566;28;19927;-72
2023/09/03 06:26:19;;;;;;;;;;;;;;;-140.72;100.00;52788.59;5067413;28;19917;-72
2023/09/03 06:28:45;;;;;;;;;;;;;;;-140.72;100.00;52727.72;5075653;28;19973;-72
2023/09/03 06:31:11;;;;;;;;;;;;;;;-140.72;100.00;52737.84;5062036;28;19921;-70
2023/09/03 06:33:36;;;;;;;;;;;;;;;-140.72;100.00;52729.75;5070039;28;19920;-70
2023/09/03 06:36:01;;;;;;;;;;;;;;;-140.72;100.00;52786.56;5063122;28;19925;-71
2023/09/03 06:38:27;;;;;;;;;;;;;;;-140.72;100.00;52756.13;5070674;28;19959;-69
2023/09/03 06:40:52;;;;;;;;;;;;;;;-140.72;100.00;52731.75;5065913;28;20019;-69
2023/09/03 06:43:29;;;;;;;;;;;;;;;-140.72;100.00;52743.94;5075664;28;19927;-69
2023/09/03 06:45:54;;;;;;;;;;;;;;;-140.72;100.00;52729.75;5060804;28;19921;-70
2023/09/03 06:48:19;;;;;;;;;;;;;;;-140.72;100.00;52719.59;5072759;28;20007;-69
2023/09/03 06:50:45;;;;;;;;;;;;;;;-140.72;100.00;52713.50;5056063;28;20272;-71
2023/09/03 06:53:10;;;;;;;;;;;;;;;-140.72;100.00;52754.09;5061040;28;19923;-71
2023/09/03 06:55:36;;;;;;;;;;;;;;;-140.72;100.00;52737.84;5061291;28;20015;-71
2023/09/03 06:58:02;;;;;;;;;;;;;;;-140.72;100.00;52743.94;5061942;28;19922;-71
2023/09/03 07:00:27;;;;;;;;;;;;;;;-140.72;100.00;52743.94;5069014;28;19920;-71
2023/09/03 07:02:52;;;;;;;;;;;;;;;-140.72;100.00;52695.25;5067335;28;19965;-71
2023/09/03 07:05:34;;;;;;;;;;;;;;;-140.72;100.00;52743.94;5073171;28;21209;-69
2023/09/03 07:07:59;;;;;;;;;;;;;;;-140.72;100.00;52711.47;5063769;28;19916;-69
2023/09/03 07:10:33;;;;;;;;;;;;;;;-140.72;100.00;52715.53;5069102;28;19924;-69
2023/09/03 07:12:59;;;;;;;;;;;;;;;-140.72;100.00;52737.84;5068412;28;19924;-68
2023/09/03 07:15:25;;;;;;;;;;;;;;;-140.72;100.00;52707.41;5064664;28;20375;-68
2023/09/03 07:17:50;;;;;;;;;;;;;;;-140.72;100.00;52719.59;5055946;28;19925;-68
2023/09/03 07:20:15;;;;;;;;;;;;;;;-140.72;100.00;52719.59;5067709;28;20316;-69
2023/09/03 07:22:41;;;;;;;;;;;;;;;-140.72;100.00;52748.00;5065067;28;20385;-69
2023/09/03 07:25:06;;;;;;;;;;;;;;;-140.72;100.00;52664.81;5065085;28;19917;-72
2023/09/03 07:27:33;;;;;;;;;;;;;;;-140.72;100.00;52674.94;5069350;28;19963;-72
2023/09/03 07:29:58;;;;;;;;;;;;;;;-140.72;100.00;52715.53;5074883;28;19952;-71
2023/09/03 07:32:42;;;;;;;;;;;;;;;-140.72;100.00;52697.28;5068317;28;19948;-72
2023/09/03 07:35:08;;;;;;;;;;;;;;;-140.72;100.00;52715.53;5073126;28;19944;-72
2023/09/03 07:37:43;;;;;;;;;;;;;;;-140.72;100.00;52679.00;5073244;28;19920;-69
2023/09/03 07:40:09;;;;;;;;;;;;;;;-140.72;100.00;52687.13;5062081;28;20117;-71
2023/09/03 07:42:37;;;;;;;;;;;;;;;-140.72;100.00;52705.38;5068446;28;19924;-69
2023/09/03 07:45:02;;;;;;;;;;;;;;;-140.72;100.00;52676.97;5060032;28;19928;-72
2023/09/03 07:47:28;;;;;;;;;;;;;;;-140.72;100.00;52697.28;5073557;28;19920;-70
2023/09/03 07:50:09;;;;;;;;;;;;;;;-140.72;100.00;52654.66;5079852;28;19943;-70
2023/09/03 07:52:41;;;;;;;;;;;;;;;-140.72;100.00;52664.81;5070150;28;19917;-72
2023/09/03 07:55:06;;;;;;;;;;;;;;;-140.72;100.00;52636.38;5072822;28;19917;-69
2023/09/03 07:57:32;;;;;;;;;;;;;;;-140.72;100.00;52636.38;5067481;28;20454;-70
2023/09/03 07:59:57;;;;;;;;;;;;;;;-140.72;100.00;52674.94;5069333;28;19920;-68
2023/09/03 08:02:24;;;;;;;;;;;;;;;-140.72;100.00;52664.81;5071149;28;19917;-68
2023/09/03 08:04:50;;;;;;;;;;;;;;;-140.72;100.00;52662.78;5071943;28;19960;-70
2023/09/03 08:07:15;;;;;;;;;;;;;;;-140.72;100.00;52644.50;5064953;28;19966;-69
2023/09/03 08:09:41;;;;;;;;;;;;;;;-140.72;100.00;52658.72;5083401;28;20413;-68
2023/09/03 08:12:06;;;;;;;;;;;;;;;-140.72;100.00;52652.63;5066973;28;20364;-68
2023/09/03 08:14:39;;;;;;;;;;;;;;;-140.72;100.00;52642.47;5062766;28;20012;-71
2023/09/03 08:17:04;;;;;;;;;;;;;;;-140.72;100.00;52664.81;5075467;28;19917;-71
2023/09/03 08:19:30;;;;;;;;;;;;;;;-140.72;100.00;52674.94;5075061;28;19931;-69
2023/09/03 08:21:59;;;;;;;;;;;;;;;-140.72;100.00;52638.41;5081110;28;19956;-71
2023/09/03 08:24:26;;;;;;;;;;;;;;;-140.72;100.00;52614.06;5062470;28;19970;-75
2023/09/03 08:26:51;;;;;;;;;;;;;;;-140.72;100.00;52626.25;5079901;28;19916;-72
2023/09/03 08:29:16;;;;;;;;;;;;;;;-140.72;100.00;52630.31;5083684;28;20405;-73
2023/09/03 08:31:41;;;;;;;;;;;;;;;-140.72;100.00;52656.69;5072627;28;19916;-73
2023/09/03 08:34:07;;;;;;;;;;;;;;;-140.72;100.00;52605.94;5060765;28;19935;-74
2023/09/03 08:36:34;;;;;;;;;;;;;;;-140.72;100.00;52605.94;5063317;28;19924;-75
2023/09/03 08:39:01;;;;;;;;;;;;;;;-140.72;100.00;52603.94;5078604;28;20297;-75
2023/09/03 08:41:27;;;;;;;;;;;;;;;-140.72;100.00;52607.97;5065205;28;20028;-74
2023/09/03 08:43:55;;;;;;;;;;;;;;;-140.72;100.00;52551.16;5098593;28;19959;-74
2023/09/03 08:46:23;;;;;;;;;;;;;;;-140.72;100.00;52565.38;5069824;28;20243;-73
2023/09/03 08:48:49;;;;;;;;;;;;;;;-140.72;100.00;52536.97;5070462;28;19917;-73
2023/09/03 08:51:15;;;;;;;;;;;;;;;-140.72;100.00;52557.25;5077798;28;20010;-74
2023/09/03 08:53:41;;;;;;;;;;;;;;;-140.72;100.00;52541.03;5087540;28;19968;-73
2023/09/03 08:56:07;;;;;;;;;;;;;;;-140.72;100.00;52520.72;5089777;28;19922;-74
2023/09/03 08:58:32;;;;;;;;;;;;;;;-140.72;100.00;52490.28;5084990;28;20011;-73
2023/09/03 09:00:58;;;;;;;;;;;;;;;-140.72;100.00;52492.31;5082045;28;19952;-70
2023/09/03 09:03:27;;;;;;;;;;;;;;;-140.72;100.00;52439.56;5074799;28;20422;-72
2023/09/03 09:05:53;;;;;;;;;;;;;;;-140.72;100.00;52476.09;5085985;28;19920;-70
2023/09/03 09:08:22;;;;;;;;;;;;;;;-140.72;100.00;52403.03;5069855;28;19979;-71
2023/09/03 09:10:50;;;;;;;;;;;;;;;-140.72;100.00;52427.38;5072931;28;20014;-72
2023/09/03 09:13:20;;;;;;;;;;;;;;;-140.72;100.00;52459.84;5075802;28;19916;-72
2023/09/03 09:15:45;;;;;;;;;;;;;;;-140.72;100.00;52423.31;5056559;28;20447;-73
2023/09/03 09:18:11;;;;;;;;;;;;;;;-140.72;100.00;52354.34;5074302;28;19924;-74
2023/09/03 09:20:39;;;;;;;;;;;;;;;-140.72;100.00;52388.84;5077853;28;19927;-73
2023/09/03 09:23:07;;;;;;;;;;;;;;;-140.72;100.00;52354.34;5061907;28;19917;-73
2023/09/03 09:25:33;;;;;;;;;;;;;;;-140.72;100.00;52362.44;5073489;28;19986;-74
2023/09/03 09:28:12;;;;;;;;;;;;;;;-140.72;100.00;52378.69;5074199;28;20374;-74
2023/09/03 09:30:51;;;;;;;;;;;;;;;-140.72;43.83;52350.28;5075410;28;19924;-71
2023/09/03 09:33:19;;;;;;;;;;;;;;;-140.72;0.00;52321.88;5073018;28;20296;-76
2023/09/03 09:35:44;;;;;;;;;;;;;;;-140.72;0.00;52325.94;5073141;28;19977;-72
2023/09/03 09:38:09;;;;;;;;;;;;;;;-140.72;0.00;52321.88;5074559;28;19916;-74
2023/09/03 09:40:35;;;;;;;;;;;;;;;-140.72;0.00;52313.75;5079901;28;19972;-74
2023/09/03 09:43:01;;;;;;;;;;;;;;;-140.72;0.00;52285.34;5069790;28;19917;-75
2023/09/03 09:45:27;;;;;;;;;;;;;;;-140.72;0.00;52338.09;5084616;28;19920;-73
2023/09/03 09:48:02;;;;;;;;;;;;;;;-140.72;0.00;52303.59;5067072;28;19921;-70
2023/09/03 09:50:31;;;;;;;;;;;;;;;-140.72;0.00;52297.53;5070397;28;19956;-70
2023/09/03 09:52:57;;;;;;;;;;;;;;;-140.72;0.00;52348.25;5066259;28;19921;-69
2023/09/03 09:55:38;;;;;;;;;;;;;;;-140.72;0.00;52279.25;5057801;28;19924;-69
2023/09/03 09:58:04;;;;;;;;;;;;;;;-140.72;0.00;52254.91;5082287;28;20290;-68
2023/09/03 10:00:32;;;;;;;;;;;;;;;-140.72;0.00;52218.38;5068534;28;19924;-68
2023/09/03 10:02:57;;;;;;;;;;;;;;;-140.72;0.00;52196.06;5094194;28;19954;-69
2023/09/03 10:05:23;;;;;;;;;;;;;;;-140.72;0.00;52206.22;5072701;28;20280;-69
2023/09/03 10:07:49;;;;;;;;;;;;;;;-140.72;0.00;52212.31;5052673;28;19925;-68
2023/09/03 10:10:14;;;;;;;;;;;;;;;-140.72;0.00;52155.50;5066455;28;19990;-70
2023/09/03 10:12:40;;;;;;;;;;;;;;;-140.72;0.00;52145.34;5060514;28;20031;-68
2023/09/03 10:15:05;;;;;;;;;;;;;;;-140.72;0.00;52171.72;5077436;28;19924;-68
2023/09/03 10:17:31;;;;;;;;;;;;;;;-140.72;0.00;52165.63;5072663;28;19950;-68
2023/09/03 10:19:59;;;;;;;;;;;;;;;-140.72;0.00;52192.00;5056586;28;19946;-68
2023/09/03 10:22:24;;;;;;;;;;;;;;;-140.72;0.00;52244.78;5053978;28;19931;-68
2023/09/03 10:25:00;;;;;;;;;;;;;;;-140.72;0.00;52198.09;5069205;28;19917;-71
2023/09/03 10:27:31;;;;;;;;;;;;;;;-140.72;0.00;52185.94;5073523;28;19924;-70
2023/09/03 10:29:58;;;;;;;;;;;;;;;-140.72;0.00;52141.28;5075640;28;19917;-69
2023/09/03 10:32:25;;;;;;;;;;;;;;;-140.72;0.00;52165.63;5082156;28;19917;-68
2023/09/03 10:34:50;;;;;;;;;;;;;;;-140.72;0.00;52187.97;5077134;28;20032;-68
2023/09/03 10:37:16;;;;;;;;;;;;;;;-140.72;0.00;52149.41;5090719;28;20390;-68
2023/09/03 10:39:45;;;;;;;;;;;;;;;-140.72;0.00;52149.41;5081363;28;19948;-69
2023/09/03 10:42:23;;;;;;;;;;;;;;;-140.72;0.00;52157.53;5084773;28;20021;-68
2023/09/03 10:44:53;;;;;;;;;;;;;;;-140.72;0.00;52086.50;5064174;28;20019;-68
2023/09/03 10:47:18;;;;;;;;;;;;;;;-140.72;0.00;52129.13;5083033;28;20371;-68
2023/09/03 10:49:44;;;;;;;;;;;;;;;-140.72;0.00;52086.50;5074102;28;20003;-69
2023/09/03 10:52:31;;;;;;;;;;;;;;;-140.72;0.00;52078.38;5079585;28;19920;-69
2023/09/03 10:55:10;;;;;;;;;;;;;;;-140.72;0.00;52047.97;5063662;28;19952;-69
2023/09/03 10:57:35;;;;;;;;;;;;;;;-140.72;0.00;52013.47;5064168;28;19920;-69
2023/09/03 11:00:04;;;;;;;;;;;;;;;-140.72;0.00;52049.97;5083101;28;19958;-69
2023/09/03 11:02:30;;;;;;;;;;;;;;;-140.72;0.00;52068.25;5075971;28;19923;-69
2023/09/03 11:05:08;;;;;;;;;;;;;;;-140.72;0.00;52027.66;5072943;28;19917;-69
2023/09/03 11:07:33;;;;;;;;;;;;;;;-140.72;0.00;51995.19;5080651;28;19916;-69
2023/09/03 11:10:18;;;;;;;;;;;;;;;-140.72;0.00;52023.59;5075277;28;19917;-69
2023/09/03 11:12:44;;;;;;;;;;;;;;;-140.72;0.00;52033.75;5077231;28;19916;-69
2023/09/03 11:15:10;;;;;;;;;;;;;;;-140.72;0.00;51997.22;5077951;28;19916;-69
2023/09/03 11:17:35;;;;;;;;;;;;;;;-140.72;0.00;51968.81;5085318;28;19921;-69
2023/09/03 11:20:00;;;;;;;;;;;;;;;-140.72;0.00;51912.03;5073931;28;19949;-71
2023/09/03 11:22:27;;;;;;;;;;;;;;;-140.72;0.00;51918.09;5091891;28;19924;-78
2023/09/03 11:24:54;;;;;;;;;;;;;;;-140.72;0.00;51912.03;5093991;28;20374;-78
2023/09/03 11:27:19;;;;;;;;;;;;;;;-140.72;0.00;51936.38;5086332;28;19943;-76
2023/09/03 11:29:45;;;;;;;;;;;;;;;-140.72;0.00;51926.22;5082882;28;20038;-75
2023/09/03 11:32:11;;;;;;;;;;;;;;;-140.72;0.00;51893.75;5074329;28;19940;-75
2023/09/03 11:34:36;;;;;;;;;;;;;;;-140.72;0.00;51887.66;5075594;28;19916;-76
2023/09/03 11:37:02;;;;;;;;;;;;;;;-140.72;0.00;51934.34;5077058;28;19920;-77
2023/09/03 11:39:27;;;;;;;;;;;;;;;-140.72;0.00;51883.63;5078055;28;19920;-77
2023/09/03 11:41:53;;;;;;;;;;;;;;;-140.72;0.00;51875.50;5079904;28;19989;-76
2023/09/03 11:44:22;;;;;;;;;;;;;;;-140.72;0.00;51861.28;5074455;28;19916;-81
2023/09/03 11:47:02;;;;;;;;;;;;;;;-140.72;0.00;51814.63;5080275;28;19925;-76
2023/09/03 11:49:27;;;;;;;;;;;;;;;-140.72;0.00;51899.84;5076019;28;19921;-76
2023/09/03 11:51:53;;;;;;;;;;;;;;;-140.72;0.00;51871.44;5076377;28;19969;-77
2023/09/03 11:54:23;;;;;;;;;;;;;;;-140.72;0.00;51826.81;5070124;28;19968;-75
2023/09/03 11:56:49;;;;;;;;;;;;;;;-140.72;0.00;51871.44;5088801;28;19954;-77
2023/09/03 11:59:14;;;;;;;;;;;;;;;-140.72;0.00;51944.47;5084154;28;20057;-77
2023/09/03 12:01:39;;;;;;;;;;;;;;;-140.72;0.00;51978.97;5085457;28;19924;-73
2023/09/03 12:04:05;;;;;;;;;;;;;;;-140.72;0.00;51944.47;5075472;28;19916;-70
2023/09/03 12:06:34;;;;;;;;;;;;;;;-140.72;0.00;51950.56;5070090;28;20383;-68
2023/09/03 12:08:59;;;;;;;;;;;;;;;-140.72;0.00;51873.47;5069330;28;19939;-72
2023/09/03 12:11:29;;;;;;;;;;;;;;;-140.72;0.00;51893.75;5064985;28;20371;-75
2023/09/03 12:13:54;;;;;;;;;;;;;;;-140.72;0.00;51887.66;5068536;28;19939;-70
2023/09/03 12:19:07;;;;;;;;;;;;;;;-140.72;0.00;51936.38;5076077;28;19921;-70
2023/09/03 12:21:33;;;;;;;;;;;;;;;-140.72;0.00;51895.78;5082343;28;19917;-70
2023/09/03 12:24:01;;;;;;;;;;;;;;;-140.72;0.00;51901.88;5085007;28;20363;-71
2023/09/03 12:26:26;;;;;;;;;;;;;;;-140.72;0.00;51916.06;5084455;28;19928;-71